Accueil
METAR-TAF:

METAR-TAF

Aéroports :

Aérodrome de La Roche-sur-Yon - Les Ajoncs

La Roche-sur-Yon, France

latitude: 46-42N, longitude: 001-23W, altitude: 90 m

Observation

Le bulletin a été fait il y a 25 minutes, à 00:00 UTC
Vent 7 kt de nord
Température 19°C
Humidité 88%
Pression 1020 hPa
Visibilité 10 km ou plus
pas de nuages en-dessous de 1500 mètres et pas de cumulonimbus.

METAR: LFRI 210000Z AUTO 01007KT CAVOK 19/17 Q1020

Heure: 02:25 (00:25 UTC)

Prévision

Le bulletin a été fait il y a 7 heures et 25 minutes, à 17:00 UTC
Prévision valable du 20 à 18 UTC au 21 à 18 UTC
Vent 7 kt de est/nord-est
Visibilité 10 km ou plus
pas de nuages en-dessous de 1500 mètres et pas de cumulonimbus.
Temporairement
du 21 à 05 UTC au 21 à 07 UTC
Nuages fragmentés à une hauteur de 1000 ft
Temporairement
du 21 à 16 UTC au 21 à 18 UTC
Vent 17 kt de nord-est

TAF: LFRI 201700Z 2018/2118 06007KT CAVOK TEMPO 2105/2107 BKN010 TEMPO 2116/2118 04017KT

Observations et prévisions météorologiques de plus de 4000 aéroports (messages METAR et TAF).

Les stations disponibles sont représentées par des disques jaunes et rouges sur la carte.

Passer la souris dessus pour voir le nom de la station.

Cliquer dessus pour voir les observations et prévisions météorologiques.

Pour changer de carte: cliquez sur les boutons verts avec une croix noire pour zoomer, sur le bouton vert avec un tiret pour effectuer un zoom arrière, ou sur les flèches vertes pour les cartes adjacentes.


METAR-TAF: